Terminal Aerodrome Forecast
Issued by NWS Cleveland, OH

Home | Current Version | Previous Version | Graphics & Text | Print | Product List | Glossary On
Versions: 1 2 3 4 5 6 7 8 9 10 11 12 13 14 15 16 17 18 19 20
237
FTUS41 KCLE 031018 AAA
TAFYNG
TAF AMD
KYNG 031018Z 0310/0406 15015G25KT 6SM -SHRA SCT035 OVC060
      WS020/19060KT
      TEMPO 0310/0313 3SM -SHRA BKN009 OVC015
     FM031300 19015G25KT 5SM -RA SCT025 OVC035
     FM031800 21015G25KT P6SM BKN035 OVC050=

USA.gov is the U.S. government's official web portal to all federal, state and local government web resources and services.